createdAt,value
2022-12-04T00:01:30.705Z,15.23
2022-12-04T00:06:34.821Z,15.16
2022-12-04T00:11:37.497Z,14.91
2022-12-04T00:16:40.258Z,14.83
2022-12-04T00:21:45.177Z,14.71
2022-12-04T00:26:47.847Z,14.51
2022-12-04T00:31:50.557Z,14.45
2022-12-04T00:36:54.625Z,14.25
2022-12-04T00:41:57.323Z,14.19
2022-12-04T00:46:59.953Z,14.05
2022-12-04T00:52:04.069Z,13.96
2022-12-04T00:57:06.734Z,13.88
2022-12-04T01:02:09.418Z,13.82
2022-12-04T01:07:13.416Z,13.72
2022-12-04T01:12:20.559Z,13.62
2022-12-04T01:17:23.855Z,13.53
2022-12-04T01:22:27.887Z,13.44
2022-12-04T01:27:30.524Z,13.37
2022-12-04T01:32:33.188Z,13.30
2022-12-04T01:37:37.230Z,13.17
2022-12-04T01:42:39.918Z,13.16
2022-12-04T01:47:42.640Z,13.11
2022-12-04T01:52:46.669Z,13.03
2022-12-04T01:57:49.398Z,12.92
2022-12-04T02:02:52.147Z,12.93
2022-12-04T02:07:58.910Z,12.84
2022-12-04T02:13:04.744Z,12.76
2022-12-04T02:18:11.585Z,12.68
2022-12-04T02:23:48.958Z,12.62
2022-12-04T02:28:54.810Z,12.57
2022-12-04T02:34:01.609Z,12.52
2022-12-04T02:39:06.876Z,12.44
2022-12-04T02:44:14.978Z,12.36
2022-12-04T02:49:21.007Z,12.32
2022-12-04T02:54:26.876Z,12.32
2022-12-04T02:59:34.590Z,12.24
2022-12-04T03:04:37.508Z,12.15
2022-12-04T03:09:43.403Z,12.13
2022-12-04T03:14:51.253Z,12.04
2022-12-04T03:19:56.483Z,12.02
2022-12-04T03:24:59.521Z,11.97
2022-12-04T03:30:06.346Z,11.95
2022-12-04T03:35:13.792Z,11.91
2022-12-04T03:40:20.666Z,11.89
2022-12-04T03:45:27.581Z,11.85
2022-12-04T03:50:34.833Z,11.80
2022-12-04T03:55:41.396Z,11.78
2022-12-04T04:00:47.338Z,11.72
2022-12-04T04:05:52.346Z,11.72
2022-12-04T04:10:56.971Z,11.63
2022-12-04T04:16:18.677Z,11.59
2022-12-04T04:21:57.036Z,11.56
2022-12-04T04:27:00.631Z,11.50
2022-12-04T04:32:10.756Z,11.45
2022-12-04T04:37:18.102Z,11.43
2022-12-04T04:42:23.816Z,11.34
2022-12-04T04:47:31.702Z,11.34
2022-12-04T04:52:35.070Z,11.32
2022-12-04T04:57:38.100Z,11.25
2022-12-04T05:02:42.130Z,11.22
2022-12-04T05:07:44.942Z,11.23
2022-12-04T05:12:47.670Z,11.19
2022-12-04T05:17:51.701Z,11.13
2022-12-04T05:22:54.645Z,11.10
2022-12-04T05:27:58.134Z,11.09
2022-12-04T05:33:02.194Z,11.08
2022-12-04T05:38:04.848Z,11.05
2022-12-04T05:43:07.496Z,11.05
2022-12-04T05:48:11.678Z,10.97
2022-12-04T05:53:14.363Z,11.30
2022-12-04T05:58:16.987Z,11.38
2022-12-04T06:03:21.396Z,11.45
2022-12-04T06:08:24.086Z,11.47
2022-12-04T06:13:26.766Z,11.47
2022-12-04T06:18:30.779Z,11.48
2022-12-04T06:23:33.417Z,11.72
2022-12-04T06:28:36.332Z,11.88
2022-12-04T06:33:40.663Z,11.98
2022-12-04T06:38:44.058Z,12.03
2022-12-04T06:43:47.005Z,12.19
2022-12-04T06:48:51.492Z,12.29
2022-12-04T06:53:54.325Z,12.45
2022-12-04T06:58:58.721Z,12.80
2022-12-04T07:04:04.181Z,13.03
2022-12-04T07:09:09.649Z,13.22
2022-12-04T07:14:13.159Z,13.37
2022-12-04T07:19:17.270Z,13.49
2022-12-04T07:24:19.911Z,13.50
2022-12-04T07:29:22.533Z,13.55
2022-12-04T07:34:26.560Z,13.59
2022-12-04T07:39:29.388Z,13.55
2022-12-04T07:44:32.225Z,13.53
2022-12-04T07:49:36.537Z,13.49
2022-12-04T07:54:39.182Z,13.47
2022-12-04T07:59:41.782Z,13.44
2022-12-04T08:04:45.991Z,13.28
2022-12-04T08:09:48.658Z,13.27
2022-12-04T08:14:51.335Z,13.32
2022-12-04T08:19:55.685Z,13.37
2022-12-04T08:24:58.596Z,13.35
2022-12-04T08:30:01.537Z,13.30
2022-12-04T08:35:06.094Z,13.26
2022-12-04T08:40:09.608Z,13.23
2022-12-04T08:45:12.498Z,13.16
2022-12-04T08:51:53.712Z,13.03
2022-12-04T09:02:27.857Z,12.83
2022-12-04T09:07:30.609Z,12.72
2022-12-04T09:12:33.347Z,12.68
2022-12-04T09:17:37.431Z,12.58
2022-12-04T09:23:02.254Z,12.51
2022-12-04T09:28:02.739Z,12.52
2022-12-04T09:33:06.814Z,12.44
2022-12-04T09:38:09.480Z,12.40
2022-12-04T09:43:21.826Z,12.36
2022-12-04T09:48:28.289Z,12.22
2022-12-04T09:53:39.765Z,12.21
2022-12-04T09:58:46.425Z,12.15
2022-12-04T10:03:51.190Z,12.16
2022-12-04T10:08:59.433Z,12.09
2022-12-04T10:14:10.087Z,12.01
2022-12-04T10:19:19.587Z,12.00
2022-12-04T10:24:29.935Z,11.95
2022-12-04T10:29:34.871Z,11.90
2022-12-04T10:34:44.082Z,11.84
2022-12-04T10:39:53.275Z,11.82
2022-12-04T10:44:56.693Z,11.82
2022-12-04T10:50:05.810Z,11.83
2022-12-04T10:55:09.064Z,11.76
2022-12-04T11:00:26.901Z,11.75
2022-12-04T11:05:33.559Z,11.78
2022-12-04T11:10:38.354Z,11.73
2022-12-04T11:15:44.488Z,11.67
2022-12-04T11:20:53.740Z,11.67
2022-12-04T11:26:03.777Z,11.63
2022-12-04T11:31:10.819Z,11.59
2022-12-04T11:36:20.897Z,11.57
2022-12-04T11:41:28.552Z,11.58
2022-12-04T11:46:34.065Z,11.57
2022-12-04T11:51:46.650Z,11.56
2022-12-04T11:56:52.107Z,11.55
2022-12-04T12:02:01.142Z,11.50
2022-12-04T12:07:12.667Z,11.43
2022-12-04T12:12:20.652Z,11.43
2022-12-04T12:17:29.764Z,11.39
2022-12-04T12:22:46.129Z,11.37
2022-12-04T12:28:01.089Z,11.35
2022-12-04T12:33:11.112Z,11.31
2022-12-04T12:38:18.449Z,11.31
2022-12-04T12:43:25.334Z,11.27
2022-12-04T12:48:32.279Z,11.27
2022-12-04T12:53:40.150Z,11.24
2022-12-04T12:58:45.346Z,11.23
2022-12-04T13:03:53.505Z,11.21
2022-12-04T13:09:05.033Z,11.17
2022-12-04T13:14:07.732Z,11.15
2022-12-04T13:19:14.384Z,11.14
2022-12-04T13:24:47.602Z,11.08
2022-12-04T13:30:05.574Z,11.07
2022-12-04T13:35:15.899Z,11.07
2022-12-04T13:40:32.728Z,11.03
2022-12-04T13:45:35.484Z,11.00
2022-12-04T13:50:39.490Z,10.99
2022-12-04T13:55:43.590Z,10.97
2022-12-04T14:00:46.295Z,10.95
2022-12-04T14:05:49.065Z,10.92
2022-12-04T14:11:01.254Z,10.90
2022-12-04T14:16:05.948Z,10.89
2022-12-04T14:21:08.682Z,10.87
2022-12-04T14:26:37.442Z,10.82
2022-12-04T14:31:47.742Z,10.82
2022-12-04T14:36:52.070Z,10.79
2022-12-04T14:42:07.081Z,10.80
2022-12-04T14:47:19.939Z,10.75
2022-12-04T14:52:26.906Z,10.73
2022-12-04T14:57:42.076Z,10.72
2022-12-04T15:02:46.251Z,10.72
2022-12-04T15:07:50.857Z,10.69
2022-12-04T15:12:55.678Z,10.68
2022-12-04T15:18:00.353Z,10.68
2022-12-04T15:23:03.695Z,10.65
2022-12-04T15:28:11.878Z,10.63
2022-12-04T15:33:21.592Z,10.60
2022-12-04T15:38:24.849Z,10.63
2022-12-04T15:43:31.892Z,10.59
2022-12-04T15:48:34.538Z,10.56
2022-12-04T15:53:38.854Z,10.55
2022-12-04T15:58:53.728Z,10.55
2022-12-04T16:03:57.242Z,10.50
2022-12-04T16:09:01.398Z,10.47
2022-12-04T16:14:17.931Z,10.47
2022-12-04T16:19:30.518Z,10.45
2022-12-04T16:24:33.249Z,10.44
2022-12-04T16:29:37.319Z,10.42
2022-12-04T16:34:40.054Z,10.40
2022-12-04T16:39:43.056Z,10.39
2022-12-04T16:44:47.362Z,10.38
2022-12-04T16:49:51.783Z,10.36
2022-12-04T16:54:54.789Z,10.35
2022-12-04T16:59:59.360Z,10.32
2022-12-04T17:05:02.370Z,10.33
2022-12-04T17:10:06.228Z,10.32
2022-12-04T17:15:11.665Z,10.31
2022-12-04T17:20:16.303Z,10.29
2022-12-04T17:25:19.286Z,10.28
2022-12-04T17:30:23.334Z,10.27
2022-12-04T17:35:26.012Z,10.25
2022-12-04T17:40:28.707Z,10.22
2022-12-04T17:45:32.760Z,10.22
2022-12-04T17:50:35.408Z,10.22
2022-12-04T17:55:38.095Z,10.20
2022-12-04T18:00:42.267Z,10.23
2022-12-04T18:05:44.973Z,10.21
2022-12-04T18:10:47.623Z,10.17
2022-12-04T18:15:51.712Z,10.17
2022-12-04T18:21:01.014Z,10.16
2022-12-04T18:26:04.865Z,10.14
2022-12-04T18:31:09.790Z,10.16
2022-12-04T18:36:15.567Z,10.13
2022-12-04T18:41:18.262Z,10.10
2022-12-04T18:46:22.761Z,10.11
2022-12-04T18:51:27.594Z,10.10
2022-12-04T18:56:31.045Z,10.11
2022-12-04T19:01:35.558Z,10.09
2022-12-04T19:06:40.587Z,10.06
2022-12-04T19:11:44.199Z,10.05
2022-12-04T19:16:48.758Z,10.02
2022-12-04T19:21:51.528Z,9.98
2022-12-04T19:26:54.857Z,10.01
2022-12-04T19:31:59.653Z,10.00
2022-12-04T19:37:02.791Z,9.96
2022-12-04T19:42:05.609Z,9.99
2022-12-04T19:47:09.678Z,9.98
2022-12-04T19:52:12.369Z,9.99
2022-12-04T19:57:15.583Z,9.98
2022-12-04T20:02:19.939Z,9.96
2022-12-04T20:07:22.829Z,9.99
2022-12-04T20:12:25.547Z,9.96
2022-12-04T20:17:31.310Z,9.96
2022-12-04T20:22:34.887Z,9.96
2022-12-04T20:27:37.582Z,9.94
2022-12-04T20:32:41.601Z,9.93
2022-12-04T20:37:44.286Z,9.94
2022-12-04T20:42:47.033Z,9.92
2022-12-04T20:47:51.097Z,9.91
2022-12-04T20:52:53.763Z,9.89
2022-12-04T20:57:57.284Z,9.89
2022-12-04T21:03:01.353Z,9.88
2022-12-04T21:08:04.221Z,9.86
2022-12-04T21:13:24.793Z,9.86
2022-12-04T21:18:28.890Z,9.85
2022-12-04T21:23:31.834Z,9.83
2022-12-04T21:28:34.610Z,9.81
2022-12-04T21:33:38.590Z,9.79
2022-12-04T21:38:41.432Z,9.79
2022-12-04T21:43:44.078Z,9.81
2022-12-04T21:48:48.234Z,9.77
2022-12-04T21:53:50.979Z,9.75
2022-12-04T21:58:54.555Z,9.75
2022-12-04T22:03:58.552Z,9.76
2022-12-04T22:09:01.666Z,9.74
2022-12-04T22:14:04.510Z,9.74
2022-12-04T22:19:08.602Z,9.71
2022-12-04T22:24:11.587Z,9.69
2022-12-04T22:29:48.686Z,9.70
2022-12-04T22:34:38.340Z,9.70
2022-12-04T22:39:41.034Z,9.72
2022-12-04T22:44:43.682Z,9.69
2022-12-04T22:49:47.806Z,9.70
2022-12-04T22:54:51.177Z,9.69
2022-12-04T22:59:53.938Z,9.68
2022-12-04T23:04:57.991Z,9.70
2022-12-04T23:10:00.787Z,9.66
2022-12-04T23:15:03.472Z,9.68
2022-12-04T23:20:08.877Z,9.67
2022-12-04T23:25:11.519Z,9.66
2022-12-04T23:30:14.436Z,9.66
2022-12-04T23:35:18.456Z,9.65
2022-12-04T23:40:21.127Z,9.65
2022-12-04T23:45:23.793Z,9.63
2022-12-04T23:50:27.842Z,9.62
2022-12-04T23:55:34.339Z,9.61
